sensor_id;sensor_type;location;lat;lon;timestamp;P1;durP1;ratioP1;P2;durP2;ratioP2
47455;SDS011;33202;48.512;-2.780;2023-02-28T00:01:08;9.82;;;2.30;;
47455;SDS011;33202;48.512;-2.780;2023-02-28T00:03:34;5.38;;;2.00;;
47455;SDS011;33202;48.512;-2.780;2023-02-28T00:06:01;8.25;;;2.47;;
47455;SDS011;33202;48.512;-2.780;2023-02-28T00:08:28;10.02;;;2.72;;
47455;SDS011;33202;48.512;-2.780;2023-02-28T00:10:54;10.88;;;2.40;;
47455;SDS011;33202;48.512;-2.780;2023-02-28T00:13:20;8.65;;;2.40;;
47455;SDS011;33202;48.512;-2.780;2023-02-28T00:15:46;11.77;;;2.10;;
47455;SDS011;33202;48.512;-2.780;2023-02-28T00:18:12;6.18;;;1.90;;
47455;SDS011;33202;48.512;-2.780;2023-02-28T00:20:38;9.98;;;2.70;;
47455;SDS011;33202;48.512;-2.780;2023-02-28T00:23:04;9.65;;;2.58;;
47455;SDS011;33202;48.512;-2.780;2023-02-28T00:25:30;6.63;;;1.95;;
47455;SDS011;33202;48.512;-2.780;2023-02-28T00:27:56;8.70;;;2.20;;
47455;SDS011;33202;48.512;-2.780;2023-02-28T00:30:23;6.72;;;1.65;;
47455;SDS011;33202;48.512;-2.780;2023-02-28T00:32:49;7.68;;;2.63;;
47455;SDS011;33202;48.512;-2.780;2023-02-28T00:35:15;9.15;;;2.42;;
47455;SDS011;33202;48.512;-2.780;2023-02-28T00:37:42;9.55;;;1.92;;
47455;SDS011;33202;48.512;-2.780;2023-02-28T00:40:08;8.52;;;2.40;;
47455;SDS011;33202;48.512;-2.780;2023-02-28T00:42:35;8.57;;;2.27;;
47455;SDS011;33202;48.512;-2.780;2023-02-28T00:45:01;9.93;;;2.80;;
47455;SDS011;33202;48.512;-2.780;2023-02-28T00:47:29;9.00;;;3.30;;
47455;SDS011;33202;48.512;-2.780;2023-02-28T00:49:55;9.70;;;2.60;;
47455;SDS011;33202;48.512;-2.780;2023-02-28T00:52:21;9.77;;;3.38;;
47455;SDS011;33202;48.512;-2.780;2023-02-28T00:54:47;12.10;;;3.42;;
47455;SDS011;33202;48.512;-2.780;2023-02-28T00:57:13;9.93;;;3.47;;
47455;SDS011;33202;48.512;-2.780;2023-02-28T00:59:39;11.82;;;3.40;;
47455;SDS011;33202;48.512;-2.780;2023-02-28T01:02:05;6.40;;;3.45;;
47455;SDS011;33202;48.512;-2.780;2023-02-28T01:04:31;12.00;;;3.70;;
47455;SDS011;33202;48.512;-2.780;2023-02-28T01:06:57;12.50;;;4.03;;
47455;SDS011;33202;48.512;-2.780;2023-02-28T01:09:23;7.93;;;3.22;;
47455;SDS011;33202;48.512;-2.780;2023-02-28T01:11:49;14.32;;;4.30;;
47455;SDS011;33202;48.512;-2.780;2023-02-28T01:14:15;9.93;;;3.85;;
47455;SDS011;33202;48.512;-2.780;2023-02-28T01:16:42;10.20;;;4.00;;
47455;SDS011;33202;48.512;-2.780;2023-02-28T01:19:08;7.28;;;3.90;;
47455;SDS011;33202;48.512;-2.780;2023-02-28T01:21:34;10.55;;;4.60;;
47455;SDS011;33202;48.512;-2.780;2023-02-28T01:24:00;10.27;;;4.32;;
47455;SDS011;33202;48.512;-2.780;2023-02-28T01:26:27;10.52;;;3.95;;
47455;SDS011;33202;48.512;-2.780;2023-02-28T01:28:53;8.02;;;4.50;;
47455;SDS011;33202;48.512;-2.780;2023-02-28T01:31:19;12.60;;;4.75;;
47455;SDS011;33202;48.512;-2.780;2023-02-28T01:33:45;15.73;;;5.03;;
47455;SDS011;33202;48.512;-2.780;2023-02-28T01:36:12;8.30;;;4.18;;
47455;SDS011;33202;48.512;-2.780;2023-02-28T01:38:39;7.28;;;4.22;;
47455;SDS011;33202;48.512;-2.780;2023-02-28T01:41:05;7.97;;;4.15;;
47455;SDS011;33202;48.512;-2.780;2023-02-28T01:43:52;7.05;;;4.53;;
47455;SDS011;33202;48.512;-2.780;2023-02-28T01:46:17;8.48;;;4.30;;
47455;SDS011;33202;48.512;-2.780;2023-02-28T01:48:48;10.00;;;4.70;;
47455;SDS011;33202;48.512;-2.780;2023-02-28T01:51:17;12.98;;;4.95;;
47455;SDS011;33202;48.512;-2.780;2023-02-28T01:53:45;8.68;;;5.05;;
47455;SDS011;33202;48.512;-2.780;2023-02-28T01:56:13;10.57;;;4.82;;
47455;SDS011;33202;48.512;-2.780;2023-02-28T01:58:46;8.57;;;5.20;;
47455;SDS011;33202;48.512;-2.780;2023-02-28T02:01:12;8.38;;;5.35;;
47455;SDS011;33202;48.512;-2.780;2023-02-28T02:03:46;11.57;;;5.97;;
47455;SDS011;33202;48.512;-2.780;2023-02-28T02:06:12;9.17;;;5.27;;
47455;SDS011;33202;48.512;-2.780;2023-02-28T02:08:38;7.55;;;5.05;;
47455;SDS011;33202;48.512;-2.780;2023-02-28T02:11:04;9.55;;;5.68;;
47455;SDS011;33202;48.512;-2.780;2023-02-28T02:13:37;9.87;;;5.13;;
47455;SDS011;33202;48.512;-2.780;2023-02-28T02:18:54;8.45;;;5.80;;
47455;SDS011;33202;48.512;-2.780;2023-02-28T02:24:02;10.23;;;5.80;;
47455;SDS011;33202;48.512;-2.780;2023-02-28T02:29:16;11.98;;;5.82;;
47455;SDS011;33202;48.512;-2.780;2023-02-28T02:31:54;13.02;;;6.40;;
47455;SDS011;33202;48.512;-2.780;2023-02-28T02:39:27;11.27;;;6.43;;
47455;SDS011;33202;48.512;-2.780;2023-02-28T02:41:55;11.07;;;6.88;;
47455;SDS011;33202;48.512;-2.780;2023-02-28T02:44:33;9.88;;;6.47;;
47455;SDS011;33202;48.512;-2.780;2023-02-28T02:47:03;10.23;;;6.68;;
47455;SDS011;33202;48.512;-2.780;2023-02-28T02:49:32;11.23;;;6.68;;
47455;SDS011;33202;48.512;-2.780;2023-02-28T02:52:05;12.55;;;7.07;;
47455;SDS011;33202;48.512;-2.780;2023-02-28T02:54:33;9.75;;;6.20;;
47455;SDS011;33202;48.512;-2.780;2023-02-28T02:57:03;11.43;;;6.72;;
47455;SDS011;33202;48.512;-2.780;2023-02-28T02:59:29;9.38;;;6.20;;
47455;SDS011;33202;48.512;-2.780;2023-02-28T03:01:57;12.60;;;7.25;;
47455;SDS011;33202;48.512;-2.780;2023-02-28T03:04:24;10.15;;;7.13;;
47455;SDS011;33202;48.512;-2.780;2023-02-28T03:06:53;8.88;;;6.43;;
47455;SDS011;33202;48.512;-2.780;2023-02-28T03:09:23;9.95;;;6.97;;
47455;SDS011;33202;48.512;-2.780;2023-02-28T03:11:49;11.23;;;7.00;;
47455;SDS011;33202;48.512;-2.780;2023-02-28T03:25:12;9.43;;;6.50;;
47455;SDS011;33202;48.512;-2.780;2023-02-28T03:27:47;8.88;;;6.38;;
47455;SDS011;33202;48.512;-2.780;2023-02-28T03:30:24;9.00;;;6.28;;
47455;SDS011;33202;48.512;-2.780;2023-02-28T03:35:41;9.50;;;6.55;;
47455;SDS011;33202;48.512;-2.780;2023-02-28T03:38:07;11.77;;;7.40;;
47455;SDS011;33202;48.512;-2.780;2023-02-28T03:40:35;13.88;;;7.38;;
47455;SDS011;33202;48.512;-2.780;2023-02-28T03:43:03;10.90;;;7.18;;
47455;SDS011;33202;48.512;-2.780;2023-02-28T03:45:31;12.80;;;7.30;;
47455;SDS011;33202;48.512;-2.780;2023-02-28T03:48:21;13.25;;;7.10;;
47455;SDS011;33202;48.512;-2.780;2023-02-28T03:50:49;9.57;;;6.93;;
47455;SDS011;33202;48.512;-2.780;2023-02-28T03:53:19;12.02;;;7.00;;
47455;SDS011;33202;48.512;-2.780;2023-02-28T03:55:49;10.90;;;6.55;;
47455;SDS011;33202;48.512;-2.780;2023-02-28T04:00:46;9.80;;;7.13;;
47455;SDS011;33202;48.512;-2.780;2023-02-28T04:03:13;10.82;;;7.03;;
47455;SDS011;33202;48.512;-2.780;2023-02-28T04:05:46;9.52;;;6.90;;
47455;SDS011;33202;48.512;-2.780;2023-02-28T04:08:14;10.93;;;7.13;;
47455;SDS011;33202;48.512;-2.780;2023-02-28T04:10:40;11.55;;;6.85;;
47455;SDS011;33202;48.512;-2.780;2023-02-28T04:13:08;10.43;;;7.28;;
47455;SDS011;33202;48.512;-2.780;2023-02-28T04:15:34;10.52;;;7.47;;
47455;SDS011;33202;48.512;-2.780;2023-02-28T04:18:01;9.60;;;7.32;;
47455;SDS011;33202;48.512;-2.780;2023-02-28T04:20:27;12.15;;;8.07;;
47455;SDS011;33202;48.512;-2.780;2023-02-28T04:22:53;11.15;;;7.15;;
47455;SDS011;33202;48.512;-2.780;2023-02-28T04:25:19;12.40;;;8.20;;
47455;SDS011;33202;48.512;-2.780;2023-02-28T04:27:45;10.82;;;8.43;;
47455;SDS011;33202;48.512;-2.780;2023-02-28T04:30:11;12.18;;;8.13;;
47455;SDS011;33202;48.512;-2.780;2023-02-28T04:32:37;13.25;;;8.90;;
47455;SDS011;33202;48.512;-2.780;2023-02-28T04:35:03;11.63;;;8.55;;
47455;SDS011;33202;48.512;-2.780;2023-02-28T04:37:30;12.63;;;8.60;;
47455;SDS011;33202;48.512;-2.780;2023-02-28T04:39:59;11.55;;;8.60;;
47455;SDS011;33202;48.512;-2.780;2023-02-28T04:42:25;14.27;;;8.82;;
47455;SDS011;33202;48.512;-2.780;2023-02-28T04:44:51;11.07;;;8.48;;
47455;SDS011;33202;48.512;-2.780;2023-02-28T04:47:17;12.35;;;8.40;;
47455;SDS011;33202;48.512;-2.780;2023-02-28T04:49:43;12.75;;;9.00;;
47455;SDS011;33202;48.512;-2.780;2023-02-28T04:52:09;12.50;;;9.43;;
47455;SDS011;33202;48.512;-2.780;2023-02-28T04:54:36;15.18;;;9.25;;
47455;SDS011;33202;48.512;-2.780;2023-02-28T04:57:04;11.70;;;9.27;;
47455;SDS011;33202;48.512;-2.780;2023-02-28T04:59:30;13.05;;;9.30;;
47455;SDS011;33202;48.512;-2.780;2023-02-28T05:01:57;13.07;;;8.43;;
47455;SDS011;33202;48.512;-2.780;2023-02-28T05:04:23;12.75;;;9.40;;
47455;SDS011;33202;48.512;-2.780;2023-02-28T05:06:49;11.40;;;8.60;;
47455;SDS011;33202;48.512;-2.780;2023-02-28T05:09:15;13.05;;;9.38;;
47455;SDS011;33202;48.512;-2.780;2023-02-28T05:11:41;14.98;;;9.18;;
47455;SDS011;33202;48.512;-2.780;2023-02-28T05:14:12;14.13;;;9.38;;
47455;SDS011;33202;48.512;-2.780;2023-02-28T05:16:38;13.75;;;8.90;;
47455;SDS011;33202;48.512;-2.780;2023-02-28T05:19:04;15.38;;;9.40;;
47455;SDS011;33202;48.512;-2.780;2023-02-28T05:21:37;12.38;;;8.50;;
47455;SDS011;33202;48.512;-2.780;2023-02-28T05:24:05;13.18;;;8.73;;
47455;SDS011;33202;48.512;-2.780;2023-02-28T05:26:33;15.25;;;8.25;;
47455;SDS011;33202;48.512;-2.780;2023-02-28T05:29:00;11.70;;;8.70;;
47455;SDS011;33202;48.512;-2.780;2023-02-28T05:31:26;12.70;;;8.52;;
47455;SDS011;33202;48.512;-2.780;2023-02-28T05:33:52;11.65;;;8.50;;
47455;SDS011;33202;48.512;-2.780;2023-02-28T05:36:18;11.48;;;9.35;;
47455;SDS011;33202;48.512;-2.780;2023-02-28T05:38:45;12.60;;;9.05;;
47455;SDS011;33202;48.512;-2.780;2023-02-28T05:41:12;16.10;;;9.70;;
47455;SDS011;33202;48.512;-2.780;2023-02-28T05:43:38;12.68;;;8.35;;
47455;SDS011;33202;48.512;-2.780;2023-02-28T05:46:04;12.68;;;9.07;;
47455;SDS011;33202;48.512;-2.780;2023-02-28T05:48:31;10.57;;;8.68;;
47455;SDS011;33202;48.512;-2.780;2023-02-28T05:50:57;10.68;;;8.45;;
47455;SDS011;33202;48.512;-2.780;2023-02-28T05:53:23;10.98;;;7.97;;
47455;SDS011;33202;48.512;-2.780;2023-02-28T05:55:49;9.40;;;7.97;;
47455;SDS011;33202;48.512;-2.780;2023-02-28T05:58:15;12.75;;;9.70;;
47455;SDS011;33202;48.512;-2.780;2023-02-28T06:00:41;10.50;;;8.13;;
47455;SDS011;33202;48.512;-2.780;2023-02-28T06:03:07;13.35;;;8.45;;
47455;SDS011;33202;48.512;-2.780;2023-02-28T06:05:33;13.93;;;8.63;;
47455;SDS011;33202;48.512;-2.780;2023-02-28T06:07:59;13.32;;;8.88;;
47455;SDS011;33202;48.512;-2.780;2023-02-28T06:10:25;14.18;;;9.43;;
47455;SDS011;33202;48.512;-2.780;2023-02-28T06:12:51;15.57;;;11.10;;
47455;SDS011;33202;48.512;-2.780;2023-02-28T06:15:17;13.43;;;9.40;;
47455;SDS011;33202;48.512;-2.780;2023-02-28T06:17:44;13.85;;;9.43;;
47455;SDS011;33202;48.512;-2.780;2023-02-28T06:20:10;11.93;;;9.93;;
47455;SDS011;33202;48.512;-2.780;2023-02-28T06:22:40;13.45;;;9.35;;
47455;SDS011;33202;48.512;-2.780;2023-02-28T06:25:06;13.30;;;10.80;;
47455;SDS011;33202;48.512;-2.780;2023-02-28T06:27:33;13.05;;;9.93;;
47455;SDS011;33202;48.512;-2.780;2023-02-28T06:29:59;13.40;;;9.88;;
47455;SDS011;33202;48.512;-2.780;2023-02-28T06:32:25;13.63;;;10.45;;
47455;SDS011;33202;48.512;-2.780;2023-02-28T06:34:51;13.15;;;9.90;;
47455;SDS011;33202;48.512;-2.780;2023-02-28T06:37:18;12.68;;;10.80;;
47455;SDS011;33202;48.512;-2.780;2023-02-28T06:39:44;14.32;;;11.55;;
47455;SDS011;33202;48.512;-2.780;2023-02-28T06:42:10;15.80;;;10.85;;
47455;SDS011;33202;48.512;-2.780;2023-02-28T06:44:36;14.23;;;11.30;;
47455;SDS011;33202;48.512;-2.780;2023-02-28T06:47:03;15.90;;;11.13;;
47455;SDS011;33202;48.512;-2.780;2023-02-28T06:49:33;13.38;;;11.18;;
47455;SDS011;33202;48.512;-2.780;2023-02-28T06:52:00;15.15;;;10.63;;
47455;SDS011;33202;48.512;-2.780;2023-02-28T06:54:26;15.18;;;11.00;;
47455;SDS011;33202;48.512;-2.780;2023-02-28T06:56:52;15.55;;;11.40;;
47455;SDS011;33202;48.512;-2.780;2023-02-28T06:59:19;14.10;;;11.18;;
47455;SDS011;33202;48.512;-2.780;2023-02-28T07:01:45;12.45;;;11.15;;
47455;SDS011;33202;48.512;-2.780;2023-02-28T07:04:11;14.50;;;10.98;;
47455;SDS011;33202;48.512;-2.780;2023-02-28T07:06:38;14.10;;;11.02;;
47455;SDS011;33202;48.512;-2.780;2023-02-28T07:09:04;14.85;;;11.30;;
47455;SDS011;33202;48.512;-2.780;2023-02-28T07:11:30;15.93;;;12.10;;
47455;SDS011;33202;48.512;-2.780;2023-02-28T07:13:57;14.77;;;11.75;;
47455;SDS011;33202;48.512;-2.780;2023-02-28T07:16:23;14.95;;;11.40;;
47455;SDS011;33202;48.512;-2.780;2023-02-28T07:18:51;16.17;;;11.90;;
47455;SDS011;33202;48.512;-2.780;2023-02-28T07:21:17;14.27;;;11.30;;
47455;SDS011;33202;48.512;-2.780;2023-02-28T07:23:43;15.07;;;11.88;;
47455;SDS011;33202;48.512;-2.780;2023-02-28T07:26:13;17.48;;;11.55;;
47455;SDS011;33202;48.512;-2.780;2023-02-28T07:28:41;15.48;;;11.93;;
47455;SDS011;33202;48.512;-2.780;2023-02-28T07:33:34;14.30;;;11.07;;
47455;SDS011;33202;48.512;-2.780;2023-02-28T07:36:01;14.43;;;11.13;;
47455;SDS011;33202;48.512;-2.780;2023-02-28T07:38:27;14.70;;;10.85;;
47455;SDS011;33202;48.512;-2.780;2023-02-28T07:40:53;15.73;;;11.70;;
47455;SDS011;33202;48.512;-2.780;2023-02-28T07:43:19;15.75;;;12.02;;
47455;SDS011;33202;48.512;-2.780;2023-02-28T07:45:45;15.27;;;11.65;;
47455;SDS011;33202;48.512;-2.780;2023-02-28T07:48:11;13.45;;;10.20;;
47455;SDS011;33202;48.512;-2.780;2023-02-28T07:50:37;15.25;;;11.27;;
47455;SDS011;33202;48.512;-2.780;2023-02-28T07:53:03;17.25;;;11.00;;
47455;SDS011;33202;48.512;-2.780;2023-02-28T07:55:29;15.95;;;12.23;;
47455;SDS011;33202;48.512;-2.780;2023-02-28T07:57:56;12.93;;;11.05;;
47455;SDS011;33202;48.512;-2.780;2023-02-28T08:00:22;13.02;;;11.10;;
47455;SDS011;33202;48.512;-2.780;2023-02-28T08:02:49;15.25;;;10.63;;
47455;SDS011;33202;48.512;-2.780;2023-02-28T08:05:15;15.27;;;11.02;;
47455;SDS011;33202;48.512;-2.780;2023-02-28T08:07:42;15.25;;;10.82;;
47455;SDS011;33202;48.512;-2.780;2023-02-28T08:10:08;13.13;;;11.02;;
47455;SDS011;33202;48.512;-2.780;2023-02-28T08:12:35;13.47;;;10.50;;
47455;SDS011;33202;48.512;-2.780;2023-02-28T08:15:01;14.77;;;10.85;;
47455;SDS011;33202;48.512;-2.780;2023-02-28T08:17:27;13.02;;;10.57;;
47455;SDS011;33202;48.512;-2.780;2023-02-28T08:19:53;15.50;;;12.23;;
47455;SDS011;33202;48.512;-2.780;2023-02-28T08:22:19;14.40;;;10.27;;
47455;SDS011;33202;48.512;-2.780;2023-02-28T08:24:45;15.18;;;11.07;;
47455;SDS011;33202;48.512;-2.780;2023-02-28T08:27:11;12.93;;;10.15;;
47455;SDS011;33202;48.512;-2.780;2023-02-28T08:29:38;15.70;;;11.27;;
47455;SDS011;33202;48.512;-2.780;2023-02-28T08:32:04;12.60;;;10.88;;
47455;SDS011;33202;48.512;-2.780;2023-02-28T08:34:30;14.85;;;10.85;;
47455;SDS011;33202;48.512;-2.780;2023-02-28T08:36:57;15.68;;;11.38;;
47455;SDS011;33202;48.512;-2.780;2023-02-28T08:39:23;15.32;;;10.02;;
47455;SDS011;33202;48.512;-2.780;2023-02-28T08:41:49;13.98;;;10.48;;
47455;SDS011;33202;48.512;-2.780;2023-02-28T08:44:15;16.60;;;10.57;;
47455;SDS011;33202;48.512;-2.780;2023-02-28T08:46:41;14.40;;;10.80;;
47455;SDS011;33202;48.512;-2.780;2023-02-28T08:49:07;16.73;;;10.70;;
47455;SDS011;33202;48.512;-2.780;2023-02-28T08:51:34;14.25;;;10.27;;
47455;SDS011;33202;48.512;-2.780;2023-02-28T08:54:00;15.02;;;9.75;;
47455;SDS011;33202;48.512;-2.780;2023-02-28T08:56:27;13.18;;;9.93;;
47455;SDS011;33202;48.512;-2.780;2023-02-28T08:58:54;16.70;;;9.90;;
47455;SDS011;33202;48.512;-2.780;2023-02-28T09:01:25;12.18;;;9.32;;
47455;SDS011;33202;48.512;-2.780;2023-02-28T09:03:55;10.85;;;8.82;;
47455;SDS011;33202;48.512;-2.780;2023-02-28T09:06:22;12.95;;;9.60;;
47455;SDS011;33202;48.512;-2.780;2023-02-28T09:08:48;13.00;;;9.65;;
47455;SDS011;33202;48.512;-2.780;2023-02-28T09:11:14;13.65;;;9.38;;
47455;SDS011;33202;48.512;-2.780;2023-02-28T09:13:41;13.63;;;9.45;;
47455;SDS011;33202;48.512;-2.780;2023-02-28T09:16:07;13.07;;;9.35;;
47455;SDS011;33202;48.512;-2.780;2023-02-28T09:18:34;14.23;;;10.10;;
47455;SDS011;33202;48.512;-2.780;2023-02-28T09:21:04;14.52;;;9.65;;
47455;SDS011;33202;48.512;-2.780;2023-02-28T09:23:31;11.98;;;9.40;;
47455;SDS011;33202;48.512;-2.780;2023-02-28T09:25:56;12.25;;;9.35;;
47455;SDS011;33202;48.512;-2.780;2023-02-28T09:28:23;14.65;;;8.82;;
47455;SDS011;33202;48.512;-2.780;2023-02-28T09:30:50;11.55;;;8.93;;
47455;SDS011;33202;48.512;-2.780;2023-02-28T09:33:17;13.50;;;7.95;;
47455;SDS011;33202;48.512;-2.780;2023-02-28T09:35:45;12.57;;;8.70;;
47455;SDS011;33202;48.512;-2.780;2023-02-28T09:38:12;12.23;;;8.15;;
47455;SDS011;33202;48.512;-2.780;2023-02-28T09:40:48;9.07;;;7.47;;
47455;SDS011;33202;48.512;-2.780;2023-02-28T09:43:15;13.90;;;9.35;;
47455;SDS011;33202;48.512;-2.780;2023-02-28T09:45:42;11.05;;;7.93;;
47455;SDS011;33202;48.512;-2.780;2023-02-28T09:48:16;11.52;;;8.40;;
47455;SDS011;33202;48.512;-2.780;2023-02-28T09:50:47;10.80;;;7.88;;
47455;SDS011;33202;48.512;-2.780;2023-02-28T09:53:26;10.43;;;7.55;;
47455;SDS011;33202;48.512;-2.780;2023-02-28T09:55:56;11.93;;;8.13;;
47455;SDS011;33202;48.512;-2.780;2023-02-28T10:00:54;13.77;;;9.13;;
47455;SDS011;33202;48.512;-2.780;2023-02-28T10:03:45;12.55;;;8.88;;
47455;SDS011;33202;48.512;-2.780;2023-02-28T10:06:19;11.40;;;8.50;;
47455;SDS011;33202;48.512;-2.780;2023-02-28T10:08:58;11.65;;;8.15;;
47455;SDS011;33202;48.512;-2.780;2023-02-28T10:11:26;12.95;;;8.57;;
47455;SDS011;33202;48.512;-2.780;2023-02-28T10:14:00;14.90;;;9.43;;
47455;SDS011;33202;48.512;-2.780;2023-02-28T10:21:47;13.82;;;9.10;;
47455;SDS011;33202;48.512;-2.780;2023-02-28T10:24:28;14.07;;;8.93;;
47455;SDS011;33202;48.512;-2.780;2023-02-28T10:26:58;11.35;;;9.10;;
47455;SDS011;33202;48.512;-2.780;2023-02-28T10:29:26;16.63;;;9.45;;
47455;SDS011;33202;48.512;-2.780;2023-02-28T10:31:52;12.77;;;8.40;;
47455;SDS011;33202;48.512;-2.780;2023-02-28T10:34:18;13.23;;;8.52;;
47455;SDS011;33202;48.512;-2.780;2023-02-28T10:36:44;13.10;;;9.32;;
47455;SDS011;33202;48.512;-2.780;2023-02-28T10:41:55;11.85;;;8.43;;
47455;SDS011;33202;48.512;-2.780;2023-02-28T10:44:22;13.73;;;9.05;;
47455;SDS011;33202;48.512;-2.780;2023-02-28T10:46:50;13.57;;;8.40;;
47455;SDS011;33202;48.512;-2.780;2023-02-28T10:49:17;13.63;;;9.68;;
47455;SDS011;33202;48.512;-2.780;2023-02-28T10:51:45;16.02;;;9.50;;
47455;SDS011;33202;48.512;-2.780;2023-02-28T10:54:18;14.20;;;9.77;;
47455;SDS011;33202;48.512;-2.780;2023-02-28T10:56:44;18.02;;;9.73;;
47455;SDS011;33202;48.512;-2.780;2023-02-28T10:59:30;16.58;;;9.50;;
47455;SDS011;33202;48.512;-2.780;2023-02-28T11:01:56;12.93;;;9.48;;
47455;SDS011;33202;48.512;-2.780;2023-02-28T11:06:59;14.60;;;9.23;;
47455;SDS011;33202;48.512;-2.780;2023-02-28T11:09:28;17.08;;;9.13;;
47455;SDS011;33202;48.512;-2.780;2023-02-28T11:11:56;11.13;;;8.40;;
47455;SDS011;33202;48.512;-2.780;2023-02-28T11:14:24;16.88;;;9.75;;
47455;SDS011;33202;48.512;-2.780;2023-02-28T11:16:51;14.93;;;9.40;;
47455;SDS011;33202;48.512;-2.780;2023-02-28T11:19:28;14.60;;;8.52;;
47455;SDS011;33202;48.512;-2.780;2023-02-28T11:21:58;14.43;;;9.07;;
47455;SDS011;33202;48.512;-2.780;2023-02-28T11:24:32;15.35;;;9.18;;
47455;SDS011;33202;48.512;-2.780;2023-02-28T11:26:59;14.75;;;9.20;;
47455;SDS011;33202;48.512;-2.780;2023-02-28T11:29:26;12.77;;;9.00;;
47455;SDS011;33202;48.512;-2.780;2023-02-28T11:34:32;13.73;;;9.10;;
47455;SDS011;33202;48.512;-2.780;2023-02-28T11:36:59;14.23;;;8.77;;
47455;SDS011;33202;48.512;-2.780;2023-02-28T11:39:25;14.35;;;9.35;;
47455;SDS011;33202;48.512;-2.780;2023-02-28T11:47:00;14.15;;;9.85;;
47455;SDS011;33202;48.512;-2.780;2023-02-28T11:49:53;13.32;;;9.20;;
47455;SDS011;33202;48.512;-2.780;2023-02-28T11:52:19;13.80;;;10.02;;
47455;SDS011;33202;48.512;-2.780;2023-02-28T11:57:31;16.80;;;10.85;;
47455;SDS011;33202;48.512;-2.780;2023-02-28T12:07:27;15.38;;;9.35;;
47455;SDS011;33202;48.512;-2.780;2023-02-28T12:27:40;17.63;;;10.30;;
47455;SDS011;33202;48.512;-2.780;2023-02-28T12:30:16;16.40;;;10.45;;
47455;SDS011;33202;48.512;-2.780;2023-02-28T12:32:52;15.52;;;10.05;;
47455;SDS011;33202;48.512;-2.780;2023-02-28T12:35:33;14.82;;;10.50;;
47455;SDS011;33202;48.512;-2.780;2023-02-28T12:38:05;13.95;;;9.98;;
47455;SDS011;33202;48.512;-2.780;2023-02-28T12:40:52;13.40;;;9.98;;
47455;SDS011;33202;48.512;-2.780;2023-02-28T12:43:19;14.60;;;10.02;;
47455;SDS011;33202;48.512;-2.780;2023-02-28T12:45:48;16.52;;;10.40;;
47455;SDS011;33202;48.512;-2.780;2023-02-28T12:48:18;16.10;;;9.18;;
47455;SDS011;33202;48.512;-2.780;2023-02-28T12:50:46;15.27;;;9.48;;
47455;SDS011;33202;48.512;-2.780;2023-02-28T12:53:21;16.77;;;9.63;;
47455;SDS011;33202;48.512;-2.780;2023-02-28T12:56:04;14.00;;;8.93;;
47455;SDS011;33202;48.512;-2.780;2023-02-28T13:01:22;14.63;;;8.82;;
47455;SDS011;33202;48.512;-2.780;2023-02-28T13:07:13;12.63;;;7.60;;
47455;SDS011;33202;48.512;-2.780;2023-02-28T13:09:29;14.30;;;8.73;;
47455;SDS011;33202;48.512;-2.780;2023-02-28T13:11:55;11.10;;;7.82;;
47455;SDS011;33202;48.512;-2.780;2023-02-28T13:17:02;13.95;;;8.20;;
47455;SDS011;33202;48.512;-2.780;2023-02-28T13:19:30;12.57;;;7.43;;
47455;SDS011;33202;48.512;-2.780;2023-02-28T13:21:57;10.25;;;7.32;;
47455;SDS011;33202;48.512;-2.780;2023-02-28T13:24:40;10.75;;;7.53;;
47455;SDS011;33202;48.512;-2.780;2023-02-28T13:34:31;12.57;;;7.47;;
47455;SDS011;33202;48.512;-2.780;2023-02-28T13:42:22;14.32;;;7.40;;
47455;SDS011;33202;48.512;-2.780;2023-02-28T13:49:53;11.93;;;7.75;;
47455;SDS011;33202;48.512;-2.780;2023-02-28T13:52:20;11.60;;;8.02;;
47455;SDS011;33202;48.512;-2.780;2023-02-28T14:05:15;14.13;;;7.40;;
47455;SDS011;33202;48.512;-2.780;2023-02-28T14:10:15;13.32;;;8.20;;
47455;SDS011;33202;48.512;-2.780;2023-02-28T14:13:11;13.27;;;7.68;;
47455;SDS011;33202;48.512;-2.780;2023-02-28T14:18:38;12.27;;;6.68;;
47455;SDS011;33202;48.512;-2.780;2023-02-28T14:20:58;9.68;;;5.95;;
47455;SDS011;33202;48.512;-2.780;2023-02-28T14:26:02;10.25;;;5.32;;
47455;SDS011;33202;48.512;-2.780;2023-02-28T14:31:01;8.27;;;4.57;;
47455;SDS011;33202;48.512;-2.780;2023-02-28T14:33:41;10.32;;;4.80;;
47455;SDS011;33202;48.512;-2.780;2023-02-28T14:38:55;10.00;;;4.70;;
47455;SDS011;33202;48.512;-2.780;2023-02-28T14:43:49;12.38;;;3.97;;
47455;SDS011;33202;48.512;-2.780;2023-02-28T14:48:41;8.07;;;3.83;;
47455;SDS011;33202;48.512;-2.780;2023-02-28T14:51:10;6.38;;;3.35;;
47455;SDS011;33202;48.512;-2.780;2023-02-28T14:53:36;5.05;;;2.72;;
47455;SDS011;33202;48.512;-2.780;2023-02-28T14:56:03;8.13;;;2.65;;
47455;SDS011;33202;48.512;-2.780;2023-02-28T14:58:30;10.52;;;2.47;;
47455;SDS011;33202;48.512;-2.780;2023-02-28T15:01:01;6.13;;;1.83;;
47455;SDS011;33202;48.512;-2.780;2023-02-28T15:06:00;5.55;;;1.77;;
47455;SDS011;33202;48.512;-2.780;2023-02-28T15:08:28;4.80;;;2.35;;
47455;SDS011;33202;48.512;-2.780;2023-02-28T15:11:00;6.70;;;1.90;;
47455;SDS011;33202;48.512;-2.780;2023-02-28T15:13:31;6.28;;;1.90;;
47455;SDS011;33202;48.512;-2.780;2023-02-28T15:16:01;8.80;;;1.88;;
47455;SDS011;33202;48.512;-2.780;2023-02-28T15:18:30;6.95;;;1.63;;
47455;SDS011;33202;48.512;-2.780;2023-02-28T15:20:58;7.30;;;1.92;;
47455;SDS011;33202;48.512;-2.780;2023-02-28T15:23:26;8.48;;;2.08;;
47455;SDS011;33202;48.512;-2.780;2023-02-28T15:25:52;6.47;;;1.40;;
47455;SDS011;33202;48.512;-2.780;2023-02-28T15:28:19;6.38;;;1.15;;
47455;SDS011;33202;48.512;-2.780;2023-02-28T15:30:52;5.28;;;1.48;;
47455;SDS011;33202;48.512;-2.780;2023-02-28T15:33:20;3.13;;;0.90;;
47455;SDS011;33202;48.512;-2.780;2023-02-28T15:35:47;5.68;;;1.08;;
47455;SDS011;33202;48.512;-2.780;2023-02-28T15:40:44;5.00;;;1.15;;
47455;SDS011;33202;48.512;-2.780;2023-02-28T15:43:14;6.47;;;1.25;;
47455;SDS011;33202;48.512;-2.780;2023-02-28T15:45:43;7.78;;;1.23;;
47455;SDS011;33202;48.512;-2.780;2023-02-28T15:48:30;6.20;;;1.63;;
47455;SDS011;33202;48.512;-2.780;2023-02-28T15:51:06;6.55;;;1.55;;
47455;SDS011;33202;48.512;-2.780;2023-02-28T15:53:36;7.82;;;1.60;;
47455;SDS011;33202;48.512;-2.780;2023-02-28T15:56:04;6.35;;;1.40;;
47455;SDS011;33202;48.512;-2.780;2023-02-28T15:58:32;7.50;;;1.40;;
47455;SDS011;33202;48.512;-2.780;2023-02-28T16:01:04;6.38;;;1.40;;
47455;SDS011;33202;48.512;-2.780;2023-02-28T16:03:50;10.90;;;5.20;;
47455;SDS011;33202;48.512;-2.780;2023-02-28T16:08:42;7.90;;;3.03;;
47455;SDS011;33202;48.512;-2.780;2023-02-28T16:11:09;9.23;;;3.35;;
47455;SDS011;33202;48.512;-2.780;2023-02-28T16:13:36;4.32;;;2.50;;
47455;SDS011;33202;48.512;-2.780;2023-02-28T16:16:02;7.28;;;2.30;;
47455;SDS011;33202;48.512;-2.780;2023-02-28T16:18:28;6.10;;;1.80;;
47455;SDS011;33202;48.512;-2.780;2023-02-28T16:20:54;9.60;;;3.25;;
47455;SDS011;33202;48.512;-2.780;2023-02-28T16:23:20;8.98;;;2.28;;
47455;SDS011;33202;48.512;-2.780;2023-02-28T16:25:46;5.45;;;1.98;;
47455;SDS011;33202;48.512;-2.780;2023-02-28T16:28:15;8.77;;;2.35;;
47455;SDS011;33202;48.512;-2.780;2023-02-28T16:30:43;9.00;;;3.08;;
47455;SDS011;33202;48.512;-2.780;2023-02-28T16:33:09;8.57;;;3.55;;
47455;SDS011;33202;48.512;-2.780;2023-02-28T16:35:35;6.60;;;2.60;;
47455;SDS011;33202;48.512;-2.780;2023-02-28T16:38:01;9.65;;;2.55;;
47455;SDS011;33202;48.512;-2.780;2023-02-28T16:40:27;6.53;;;2.53;;
47455;SDS011;33202;48.512;-2.780;2023-02-28T16:42:55;5.78;;;2.38;;
47455;SDS011;33202;48.512;-2.780;2023-02-28T16:45:24;5.40;;;2.05;;
47455;SDS011;33202;48.512;-2.780;2023-02-28T16:47:51;8.18;;;3.03;;
47455;SDS011;33202;48.512;-2.780;2023-02-28T16:50:21;6.82;;;2.15;;
47455;SDS011;33202;48.512;-2.780;2023-02-28T16:52:47;7.80;;;2.60;;